KCDC/CDC METAR and TAF weather

Enter ICAO airport designator
Station Type Date Time Source
KCDC METAR 2020/11/25 21:53 UTC NOAA

KCDC 252153Z AUTO 23019KT 10SM CLR 10/M10 A2999 RMK AO2 PK WND 23027/2104 SLP155 T01001100


Station Type Date Time Source
KCDC Decoded METAR 2020/11/25 21:53 UTC NOAA

CEDAR CITY MUN AIRPORT, UT, United States (KCDC) 37-42N 113-06W 1714M
Nov 25, 2020 - 04:53 PM EST / 2020.11.25 2153 UTC
Wind: from the SW (230 degrees) at 22 MPH (19 KT):0
Visibility: 10 mile(s):0
Sky conditions: clear
Temperature: 50.0 F (10.0 C)
Dew Point: 14.0 F (-10.0 C)
Relative Humidity: 23%
Pressure (altimeter): 29.99 in. Hg (1015 hPa)
ob: KCDC 252153Z AUTO 23019KT 10SM CLR 10/M10 A2999 RMK AO2 PK WND 23027/2104 SLP155 T01001100
cycle: 22

Station Type Date Time Source
KCDC TAF 2020/11/25 18:45 UTC NOAA

TAF KCDC 251742Z 2518/2618 17009KT P6SM SKC
FM251900 21012G21KT P6SM SKC
FM260000 20007KT P6SM SKC
FM260800 VRB05KT P6SM SCT050 SCT090
FM261200 01005KT P6SM VCSH BKN050

Example: see airport list